createdAt,value
2022-12-23T00:03:26.136Z,9.99
2022-12-23T00:07:28.248Z,10.00
2022-12-23T00:11:30.436Z,9.97
2022-12-23T00:15:32.668Z,9.93
2022-12-23T00:19:34.797Z,9.92
2022-12-23T00:23:41.971Z,9.85
2022-12-23T00:28:01.429Z,9.76
2022-12-23T00:32:03.880Z,9.43
2022-12-23T00:36:20.150Z,9.39
2022-12-23T00:40:41.037Z,9.37
2022-12-23T00:44:43.212Z,9.37
2022-12-23T00:49:04.556Z,9.45
2022-12-23T00:53:07.341Z,9.53
2022-12-23T00:57:09.711Z,9.48
2022-12-23T01:01:30.630Z,9.61
2022-12-23T01:05:38.855Z,9.74
2022-12-23T01:09:41.049Z,9.81
2022-12-23T01:13:43.142Z,9.79
2022-12-23T01:17:45.323Z,9.86
2022-12-23T01:21:47.431Z,9.85
2022-12-23T01:25:57.439Z,9.89
2022-12-23T01:29:59.507Z,9.93
2022-12-23T01:34:01.664Z,9.85
2022-12-23T01:38:04.538Z,9.85
2022-12-23T01:42:32.249Z,9.81
2022-12-23T01:46:34.400Z,9.81
2022-12-23T01:50:51.758Z,9.62
2022-12-23T01:54:55.344Z,9.49
2022-12-23T01:59:01.092Z,9.46
2022-12-23T02:03:21.886Z,9.54
2022-12-23T02:07:42.687Z,9.70
2022-12-23T02:11:54.908Z,9.78
2022-12-23T02:16:19.658Z,9.73
2022-12-23T02:20:25.059Z,9.73
2022-12-23T02:24:50.980Z,9.67
2022-12-23T02:29:21.960Z,9.69
2022-12-23T02:33:53.582Z,9.67
2022-12-23T02:38:18.966Z,9.47
2022-12-23T02:42:29.819Z,9.41
2022-12-23T02:46:56.756Z,9.32
2022-12-23T02:51:02.176Z,9.37
2022-12-23T02:55:10.740Z,9.47
2022-12-23T02:59:20.562Z,9.54
2022-12-23T03:03:24.201Z,9.50
2022-12-23T03:07:46.695Z,9.38
2022-12-23T03:12:01.147Z,9.51
2022-12-23T03:16:22.197Z,9.68
2022-12-23T03:20:49.775Z,9.72
2022-12-23T03:25:04.604Z,9.63
2022-12-23T03:29:17.475Z,9.56
2022-12-23T03:33:34.885Z,9.58
2022-12-23T03:37:40.553Z,9.53
2022-12-23T03:41:47.525Z,9.58
2022-12-23T03:45:55.411Z,9.61
2022-12-23T03:50:02.064Z,9.70
2022-12-23T03:54:11.870Z,9.78
2022-12-23T03:58:35.190Z,9.66
2022-12-23T04:02:57.329Z,9.61
2022-12-23T04:07:05.193Z,9.72
2022-12-23T04:11:08.213Z,9.62
2022-12-23T04:15:13.099Z,9.59
2022-12-23T04:19:16.313Z,9.69
2022-12-23T04:23:18.723Z,9.62
2022-12-23T04:27:20.949Z,9.75
2022-12-23T04:31:23.212Z,9.88
2022-12-23T04:35:25.419Z,9.96
2022-12-23T04:39:27.464Z,9.95
2022-12-23T04:43:29.606Z,9.98
2022-12-23T04:47:31.833Z,9.97
2022-12-23T04:51:34.625Z,10.02
2022-12-23T04:55:36.789Z,10.11
2022-12-23T04:59:39.221Z,10.06
2022-12-23T05:03:41.563Z,9.98
2022-12-23T05:07:43.920Z,10.01
2022-12-23T05:11:46.142Z,10.02
2022-12-23T05:15:53.705Z,10.03
2022-12-23T05:19:55.924Z,9.99
2022-12-23T05:23:58.355Z,9.91
2022-12-23T05:28:00.483Z,9.94
2022-12-23T05:32:02.709Z,9.91
2022-12-23T05:36:05.727Z,9.98
2022-12-23T05:40:08.568Z,9.94
2022-12-23T05:44:10.928Z,9.85
2022-12-23T05:48:13.850Z,9.80
2022-12-23T05:52:15.931Z,9.86
2022-12-23T05:56:18.148Z,9.95
2022-12-23T06:00:21.044Z,9.66
2022-12-23T06:04:23.967Z,9.66
2022-12-23T06:08:26.283Z,9.63
2022-12-23T06:12:28.437Z,9.63
2022-12-23T06:16:30.594Z,9.70
2022-12-23T06:20:33.219Z,9.83
2022-12-23T06:24:35.481Z,9.90
2022-12-23T06:28:37.664Z,9.98
2022-12-23T06:32:40.218Z,9.71
2022-12-23T06:36:42.423Z,9.82
2022-12-23T06:40:44.700Z,9.93
2022-12-23T06:44:46.990Z,10.02
2022-12-23T06:48:50.191Z,9.89
2022-12-23T06:52:52.830Z,9.81
2022-12-23T06:56:55.296Z,9.97
2022-12-23T07:00:58.270Z,9.95
2022-12-23T07:05:01.012Z,9.83
2022-12-23T07:09:03.274Z,9.98
2022-12-23T07:13:05.564Z,10.04
2022-12-23T07:17:08.003Z,10.06
2022-12-23T07:21:19.989Z,9.95
2022-12-23T07:25:27.144Z,10.08
2022-12-23T07:29:29.456Z,9.82
2022-12-23T07:33:31.718Z,9.71
2022-12-23T07:37:33.850Z,9.54
2022-12-23T07:41:36.095Z,9.58
2022-12-23T07:45:41.886Z,9.57
2022-12-23T07:49:44.552Z,9.69
2022-12-23T07:53:51.041Z,9.77
2022-12-23T07:57:53.975Z,9.87
2022-12-23T08:01:56.247Z,9.88
2022-12-23T08:06:07.747Z,10.08
2022-12-23T08:10:10.278Z,10.14
2022-12-23T08:14:12.415Z,10.18
2022-12-23T08:18:14.570Z,10.27
2022-12-23T08:22:17.080Z,10.23
2022-12-23T08:26:22.517Z,10.27
2022-12-23T08:30:24.842Z,10.44
2022-12-23T08:34:27.356Z,10.54
2022-12-23T08:38:29.667Z,10.56
2022-12-23T08:42:31.852Z,10.53
2022-12-23T08:46:34.640Z,10.69
2022-12-23T08:50:42.340Z,10.77
2022-12-23T08:54:44.613Z,10.70
2022-12-23T08:58:49.182Z,10.77
2022-12-23T09:02:51.809Z,10.47
2022-12-23T09:06:55.246Z,10.41
2022-12-23T09:10:57.477Z,10.60
2022-12-23T09:14:59.624Z,10.64
2022-12-23T09:19:01.753Z,10.43
2022-12-23T09:23:04.695Z,10.22
2022-12-23T09:27:06.792Z,10.17
2022-12-23T09:31:13.590Z,10.38
2022-12-23T09:35:16.223Z,10.56
2022-12-23T09:39:18.367Z,10.70
2022-12-23T09:43:46.795Z,10.81
2022-12-23T09:47:50.221Z,10.73
2022-12-23T09:52:03.776Z,10.84
2022-12-23T09:56:08.419Z,11.03
2022-12-23T10:00:16.615Z,11.11
2022-12-23T10:05:00.121Z,11.26
2022-12-23T10:09:05.032Z,11.41
2022-12-23T10:13:19.510Z,11.54
2022-12-23T10:17:29.983Z,11.56
2022-12-23T10:21:54.993Z,11.50
2022-12-23T10:25:57.420Z,11.47
2022-12-23T10:30:42.002Z,11.56
2022-12-23T10:35:01.288Z,11.43
2022-12-23T10:39:21.112Z,11.24
2022-12-23T10:43:27.309Z,11.45
2022-12-23T10:47:52.252Z,11.60
2022-12-23T10:52:01.976Z,11.72
2022-12-23T10:56:07.011Z,11.67
2022-12-23T11:00:18.579Z,11.53
2022-12-23T11:04:32.761Z,11.55
2022-12-23T11:08:36.706Z,11.72
2022-12-23T11:12:45.733Z,11.79
2022-12-23T11:16:47.963Z,11.75
2022-12-23T11:21:14.529Z,11.57
2022-12-23T11:25:38.199Z,11.60
2022-12-23T11:29:54.543Z,11.56
2022-12-23T11:34:02.506Z,11.40
2022-12-23T11:38:04.825Z,11.43
2022-12-23T11:42:18.080Z,11.54
2022-12-23T11:46:29.659Z,11.66
2022-12-23T11:50:37.073Z,11.79
2022-12-23T11:54:40.047Z,11.70
2022-12-23T11:59:01.629Z,11.81
2022-12-23T12:03:07.348Z,11.56
2022-12-23T12:07:14.562Z,11.96
2022-12-23T12:11:28.061Z,12.22
2022-12-23T12:15:44.373Z,12.31
2022-12-23T12:20:12.591Z,12.43
2022-12-23T12:24:26.474Z,12.35
2022-12-23T12:28:42.024Z,12.37
2022-12-23T12:33:16.274Z,12.59
2022-12-23T12:37:50.386Z,12.45
2022-12-23T12:42:06.019Z,12.72
2022-12-23T12:46:32.972Z,12.91
2022-12-23T12:50:42.607Z,12.84
2022-12-23T12:54:48.022Z,12.73
2022-12-23T12:58:53.611Z,12.76
2022-12-23T13:03:29.321Z,12.71
2022-12-23T13:07:52.095Z,12.60
2022-12-23T13:12:32.929Z,12.45
2022-12-23T13:16:47.814Z,12.23
2022-12-23T13:21:03.505Z,12.17
2022-12-23T13:25:13.829Z,12.24
2022-12-23T13:29:43.935Z,12.42
2022-12-23T13:33:52.603Z,12.36
2022-12-23T13:38:24.056Z,12.32
2022-12-23T13:42:38.119Z,12.26
2022-12-23T13:47:02.105Z,12.22
2022-12-23T13:51:18.938Z,12.04
2022-12-23T13:55:47.968Z,12.08
2022-12-23T14:00:18.564Z,12.17
2022-12-23T14:04:37.073Z,12.05
2022-12-23T14:08:48.843Z,12.04
2022-12-23T14:13:06.860Z,12.11
2022-12-23T14:17:36.664Z,11.97
2022-12-23T14:26:58.769Z,11.89
2022-12-23T14:31:04.328Z,11.83
2022-12-23T14:35:38.606Z,11.88
2022-12-23T14:39:50.592Z,11.93
2022-12-23T14:43:57.673Z,11.83
2022-12-23T14:48:04.366Z,11.78
2022-12-23T14:52:46.795Z,11.80
2022-12-23T14:57:08.937Z,11.92
2022-12-23T15:01:22.830Z,11.95
2022-12-23T15:05:27.902Z,11.99
2022-12-23T15:09:43.998Z,12.00
2022-12-23T15:14:03.056Z,12.12
2022-12-23T15:18:15.720Z,12.11
2022-12-23T15:22:32.263Z,12.08
2022-12-23T15:27:24.627Z,12.16
2022-12-23T15:31:35.382Z,12.15
2022-12-23T15:35:45.744Z,12.01
2022-12-23T15:40:04.511Z,11.93
2022-12-23T15:44:24.424Z,11.74
2022-12-23T15:48:43.284Z,11.67
2022-12-23T15:52:51.474Z,11.49
2022-12-23T15:57:00.774Z,11.55
2022-12-23T16:01:22.970Z,11.70
2022-12-23T16:05:45.931Z,11.61
2022-12-23T16:09:56.941Z,11.58
2022-12-23T16:14:21.797Z,11.51
2022-12-23T16:18:34.747Z,11.48
2022-12-23T16:22:41.878Z,11.53
2022-12-23T16:26:47.286Z,11.49
2022-12-23T16:31:01.565Z,11.53
2022-12-23T16:35:12.366Z,11.61
2022-12-23T16:39:26.690Z,11.72
2022-12-23T16:44:03.038Z,11.75
2022-12-23T16:48:30.868Z,11.72
2022-12-23T16:52:34.614Z,11.76
2022-12-23T16:56:39.517Z,11.75
2022-12-23T17:00:44.985Z,11.78
2022-12-23T17:04:55.800Z,11.80
2022-12-23T17:09:01.614Z,11.85
2022-12-23T17:13:07.148Z,11.87
2022-12-23T17:17:22.465Z,11.90
2022-12-23T17:21:46.366Z,11.89
2022-12-23T17:25:49.930Z,11.89
2022-12-23T17:30:00.213Z,11.87
2022-12-23T17:34:16.498Z,11.83
2022-12-23T17:38:27.228Z,11.86
2022-12-23T17:42:37.194Z,11.84
2022-12-23T17:46:46.072Z,11.83
2022-12-23T17:50:49.007Z,11.78
2022-12-23T17:54:51.595Z,11.65
2022-12-23T17:58:56.112Z,11.64
2022-12-23T18:02:58.871Z,11.75
2022-12-23T18:07:01.442Z,11.60
2022-12-23T18:11:05.779Z,11.36
2022-12-23T18:15:18.914Z,11.32
2022-12-23T18:19:21.944Z,11.37
2022-12-23T18:23:29.474Z,11.23
2022-12-23T18:27:31.692Z,11.36
2022-12-23T18:31:38.857Z,11.42
2022-12-23T18:35:49.007Z,11.39
2022-12-23T18:39:52.224Z,11.29
2022-12-23T18:43:57.190Z,11.26
2022-12-23T18:48:08.106Z,11.26
2022-12-23T18:52:14.667Z,11.23
2022-12-23T18:56:21.345Z,11.42
2022-12-23T19:00:28.548Z,11.50
2022-12-23T19:04:31.415Z,11.58
2022-12-23T19:08:40.226Z,11.63
2022-12-23T19:12:46.896Z,11.64
2022-12-23T19:16:52.002Z,11.55
2022-12-23T19:20:58.960Z,11.64
2022-12-23T19:25:06.332Z,11.58
2022-12-23T19:29:09.692Z,11.65
2022-12-23T19:33:13.473Z,11.64
2022-12-23T19:37:15.769Z,11.69
2022-12-23T19:41:18.450Z,11.67
2022-12-23T19:45:20.735Z,11.69
2022-12-23T19:49:23.310Z,11.71
2022-12-23T19:53:26.781Z,11.70
2022-12-23T19:57:29.056Z,11.70
2022-12-23T20:01:31.749Z,11.62
2022-12-23T20:05:35.430Z,11.57
2022-12-23T20:09:44.004Z,11.54
2022-12-23T20:13:54.249Z,11.55
2022-12-23T20:17:57.267Z,11.52
2022-12-23T20:22:02.569Z,11.52
2022-12-23T20:26:05.724Z,11.59
2022-12-23T20:30:09.091Z,11.54
2022-12-23T20:34:19.120Z,11.55
2022-12-23T20:38:23.078Z,11.59
2022-12-23T20:42:28.417Z,11.61
2022-12-23T20:46:33.234Z,11.55
2022-12-23T20:50:41.562Z,11.38
2022-12-23T20:54:48.611Z,11.40
2022-12-23T20:59:02.414Z,11.47
2022-12-23T21:03:10.262Z,11.54
2022-12-23T21:07:13.446Z,11.61
2022-12-23T21:11:19.547Z,11.48
2022-12-23T21:15:23.610Z,11.54
2022-12-23T21:19:28.320Z,11.62
2022-12-23T21:23:31.443Z,11.63
2022-12-23T21:27:33.979Z,11.53
2022-12-23T21:31:40.122Z,11.54
2022-12-23T21:35:45.991Z,11.24
2022-12-23T21:39:50.070Z,11.13
2022-12-23T21:43:52.533Z,11.14
2022-12-23T21:47:57.104Z,11.30
2022-12-23T21:52:05.031Z,11.28
2022-12-23T21:56:18.279Z,11.41
2022-12-23T22:00:26.051Z,11.49
2022-12-23T22:04:30.075Z,11.47
2022-12-23T22:08:36.547Z,11.53
2022-12-23T22:12:40.531Z,11.50
2022-12-23T22:16:46.050Z,11.46
2022-12-23T22:20:51.527Z,11.52
2022-12-23T22:24:54.453Z,11.49
2022-12-23T22:29:07.315Z,11.50
2022-12-23T22:33:13.924Z,11.50
2022-12-23T22:37:16.675Z,11.54
2022-12-23T22:41:29.609Z,11.51
2022-12-23T22:45:36.787Z,11.58
2022-12-23T22:49:45.204Z,11.57
2022-12-23T22:53:50.283Z,11.55
2022-12-23T22:57:53.517Z,11.61
2022-12-23T23:01:55.864Z,11.59
2022-12-23T23:06:01.899Z,11.66
2022-12-23T23:10:07.429Z,11.66
2022-12-23T23:14:14.488Z,11.46
2022-12-23T23:18:16.824Z,11.20
2022-12-23T23:22:21.293Z,11.38
2022-12-23T23:26:27.154Z,11.50
2022-12-23T23:30:32.939Z,11.55
2022-12-23T23:34:37.418Z,11.59
2022-12-23T23:38:40.364Z,11.53
2022-12-23T23:42:44.014Z,11.45
2022-12-23T23:46:46.983Z,11.50
2022-12-23T23:50:49.157Z,11.28
2022-12-23T23:54:51.494Z,11.26
2022-12-23T23:58:55.397Z,11.21
